createdAt,value
2019-01-05T00:00:54.671Z,4.84
2019-01-05T00:05:58.766Z,4.85
2019-01-05T00:11:02.829Z,4.90
2019-01-05T00:16:07.780Z,4.93
2019-01-05T00:21:12.281Z,4.98
2019-01-05T00:26:17.100Z,5.01
2019-01-05T00:31:21.720Z,4.98
2019-01-05T00:36:33.478Z,5.02
2019-01-05T00:41:52.009Z,5.05
2019-01-05T00:46:58.681Z,5.13
2019-01-05T00:52:03.318Z,5.14
2019-01-05T00:57:07.455Z,5.27
2019-01-05T01:02:12.257Z,5.23
2019-01-05T01:07:16.661Z,5.22
2019-01-05T01:12:22.977Z,5.26
2019-01-05T01:17:27.276Z,5.28
2019-01-05T01:22:31.486Z,5.27
2019-01-05T01:27:35.906Z,5.30
2019-01-05T01:32:40.152Z,5.36
2019-01-05T01:38:13.110Z,5.40
2019-01-05T01:43:17.500Z,5.39
2019-01-05T01:48:22.243Z,5.40
2019-01-05T01:53:27.268Z,5.39
2019-01-05T01:58:37.477Z,5.45
2019-01-05T02:03:41.817Z,5.50
2019-01-05T02:08:52.419Z,5.48
2019-01-05T02:13:58.257Z,5.53
2019-01-05T02:19:28.077Z,5.55
2019-01-05T02:25:19.842Z,5.55
2019-01-05T02:30:57.815Z,5.59
2019-01-05T02:36:37.414Z,5.58
2019-01-05T02:42:30.115Z,5.59
2019-01-05T02:48:09.345Z,5.64
2019-01-05T02:53:58.594Z,5.65
2019-01-05T02:59:45.112Z,5.67
2019-01-05T03:05:14.191Z,5.68
2019-01-05T03:11:11.178Z,5.71
2019-01-05T03:16:57.518Z,5.74
2019-01-05T03:22:40.848Z,5.82
2019-01-05T03:28:19.322Z,5.91
2019-01-05T03:34:02.154Z,5.92
2019-01-05T03:39:58.979Z,5.95
2019-01-05T03:45:29.899Z,6.02
2019-01-05T03:51:20.029Z,6.04
2019-01-05T03:56:49.182Z,6.07
2019-01-05T04:02:34.240Z,6.12
2019-01-05T04:08:06.070Z,6.15
2019-01-05T04:13:55.331Z,6.17
2019-01-05T04:19:38.682Z,6.17
2019-01-05T04:25:10.112Z,6.22
2019-01-05T04:30:50.948Z,6.27
2019-01-05T04:36:20.230Z,6.36
2019-01-05T04:42:07.318Z,6.34
2019-01-05T04:47:50.309Z,6.43
2019-01-05T04:53:49.050Z,6.44
2019-01-05T04:59:25.269Z,6.46
2019-01-05T05:05:25.782Z,6.47
2019-01-05T05:10:54.071Z,6.46
2019-01-05T05:16:50.867Z,6.48
2019-01-05T05:22:43.715Z,6.50
2019-01-05T05:28:29.023Z,6.51
2019-01-05T05:34:12.254Z,6.55
2019-01-05T05:39:47.333Z,6.55
2019-01-05T05:45:39.719Z,6.54
2019-01-05T05:51:14.265Z,6.60
2019-01-05T05:57:00.635Z,6.57
2019-01-05T06:02:32.267Z,6.56
2019-01-05T06:08:29.720Z,6.56
2019-01-05T06:14:31.378Z,6.73
2019-01-05T06:20:18.385Z,6.59
2019-01-05T06:25:53.974Z,6.59
2019-01-05T06:31:50.729Z,6.59
2019-01-05T06:37:33.535Z,6.63
2019-01-05T06:43:06.278Z,6.57
2019-01-05T06:49:00.388Z,6.61
2019-01-05T06:54:37.697Z,6.63
2019-01-05T07:00:16.909Z,6.68
2019-01-05T07:06:12.380Z,6.66
2019-01-05T07:11:50.294Z,6.64
2019-01-05T07:17:35.250Z,6.68
2019-01-05T07:23:26.186Z,6.67
2019-01-05T07:29:05.377Z,6.72
2019-01-05T07:34:51.595Z,6.73
2019-01-05T07:40:35.139Z,6.77
2019-01-05T07:46:31.200Z,6.75
2019-01-05T07:52:10.795Z,6.82
2019-01-05T07:57:53.255Z,6.85
2019-01-05T08:03:41.388Z,6.90
2019-01-05T08:09:20.540Z,6.93
2019-01-05T08:15:09.059Z,6.99
2019-01-05T08:20:48.630Z,7.02
2019-01-05T08:26:32.622Z,7.10
2019-01-05T08:32:28.106Z,7.12
2019-01-05T08:38:14.342Z,7.12
2019-01-05T08:43:57.845Z,7.12
2019-01-05T08:49:30.667Z,7.12
2019-01-05T08:55:06.778Z,7.11
2019-01-05T09:00:53.384Z,7.10
2019-01-05T09:06:35.323Z,7.16
2019-01-05T09:12:15.813Z,7.12
2019-01-05T09:18:18.669Z,7.18
2019-01-05T09:24:02.103Z,7.26
2019-01-05T09:29:32.809Z,7.35
2019-01-05T09:35:10.917Z,7.34
2019-01-05T09:40:50.057Z,7.38
2019-01-05T09:46:42.672Z,7.47
2019-01-05T09:52:29.474Z,7.52
2019-01-05T09:58:13.188Z,7.77
2019-01-05T10:03:54.039Z,8.01
2019-01-05T10:09:33.511Z,8.35
2019-01-05T10:15:10.865Z,8.60
2019-01-05T10:21:04.891Z,8.38
2019-01-05T10:26:47.058Z,8.40
2019-01-05T10:32:25.210Z,8.44
2019-01-05T10:38:18.370Z,8.54
2019-01-05T10:44:00.999Z,8.63
2019-01-05T10:49:44.884Z,9.12
2019-01-05T10:55:11.242Z,9.76
2019-01-05T11:00:51.825Z,10.74
2019-01-05T11:06:32.045Z,9.62
2019-01-05T11:12:15.154Z,8.67
2019-01-05T11:17:58.648Z,8.61
2019-01-05T11:23:49.641Z,8.60
2019-01-05T11:29:52.497Z,8.34
2019-01-05T11:35:52.630Z,8.47
2019-01-05T11:41:58.256Z,8.61
2019-01-05T11:47:33.795Z,8.45
2019-01-05T11:53:16.318Z,8.51
2019-01-05T11:59:04.458Z,8.34
2019-01-05T12:04:38.756Z,8.33
2019-01-05T12:10:07.590Z,8.25
2019-01-05T12:15:57.002Z,8.40
2019-01-05T12:21:24.919Z,8.81
2019-01-05T12:27:27.789Z,8.29
2019-01-05T12:33:14.408Z,8.07
2019-01-05T12:39:14.298Z,8.16
2019-01-05T12:45:27.176Z,8.24
2019-01-05T12:51:22.677Z,8.10
2019-01-05T12:57:31.048Z,7.83
2019-01-05T13:03:21.018Z,7.82
2019-01-05T13:09:04.645Z,7.66
2019-01-05T13:14:43.499Z,7.69
2019-01-05T13:20:18.846Z,7.68
2019-01-05T13:26:00.612Z,7.64
2019-01-05T13:32:13.684Z,7.63
2019-01-05T13:37:52.852Z,7.67
2019-01-05T13:43:48.263Z,7.68
2019-01-05T13:49:23.680Z,7.70
2019-01-05T13:54:49.003Z,7.76
2019-01-05T13:59:53.080Z,7.72
2019-01-05T14:04:57.449Z,7.70
2019-01-05T14:10:01.552Z,7.67
2019-01-05T14:15:05.782Z,7.63
2019-01-05T14:20:11.901Z,7.63
2019-01-05T14:25:15.672Z,7.62
2019-01-05T14:30:19.683Z,7.63
2019-01-05T14:35:23.727Z,7.66
2019-01-05T14:40:27.930Z,7.64
2019-01-05T14:45:31.997Z,7.62
2019-01-05T14:50:36.065Z,7.58
2019-01-05T14:55:40.138Z,7.53
2019-01-05T15:01:02.030Z,7.47
2019-01-05T15:06:06.093Z,7.45
2019-01-05T15:11:12.723Z,7.38
2019-01-05T15:16:17.779Z,7.37
2019-01-05T15:21:22.213Z,7.38
2019-01-05T15:26:44.233Z,7.43
2019-01-05T15:31:48.441Z,7.42
2019-01-05T15:36:59.032Z,7.39
2019-01-05T15:42:11.757Z,7.34
2019-01-05T15:47:33.413Z,7.30
2019-01-05T15:52:37.463Z,7.20
2019-01-05T15:57:59.088Z,7.09
2019-01-05T16:03:03.181Z,7.05
2019-01-05T16:08:07.236Z,6.98
2019-01-05T16:13:11.559Z,6.89
2019-01-05T16:18:15.916Z,6.71
2019-01-05T16:23:20.143Z,6.55
2019-01-05T16:28:41.847Z,6.42
2019-01-05T16:33:46.037Z,6.41
2019-01-05T16:38:50.139Z,6.29
2019-01-05T16:44:11.933Z,6.24
2019-01-05T16:49:16.099Z,6.13
2019-01-05T16:54:20.242Z,6.01
2019-01-05T16:59:24.843Z,5.99
2019-01-05T17:04:28.960Z,5.97
2019-01-05T17:09:51.251Z,5.86
2019-01-05T17:14:56.909Z,5.71
2019-01-05T17:20:01.873Z,5.69
2019-01-05T17:25:09.460Z,5.72
2019-01-05T17:30:13.802Z,5.77
2019-01-05T17:35:19.216Z,5.78
2019-01-05T17:40:24.378Z,5.78
2019-01-05T17:45:30.092Z,5.79
2019-01-05T17:50:34.937Z,5.83
2019-01-05T17:55:57.383Z,5.83
2019-01-05T18:01:03.299Z,5.82
2019-01-05T18:06:08.632Z,5.85
2019-01-05T18:11:31.313Z,5.89
2019-01-05T18:16:44.739Z,5.87
2019-01-05T18:21:48.853Z,5.78
2019-01-05T18:26:53.105Z,5.74
2019-01-05T18:31:57.158Z,5.73
2019-01-05T18:37:01.226Z,5.75
2019-01-05T18:42:07.166Z,5.70
2019-01-05T18:47:11.304Z,5.69
2019-01-05T18:52:15.426Z,5.69
2019-01-05T18:57:19.444Z,5.65
2019-01-05T19:02:23.480Z,5.58
2019-01-05T19:07:27.678Z,5.59
2019-01-05T19:12:31.689Z,5.49
2019-01-05T19:17:35.770Z,5.18
2019-01-05T19:22:54.947Z,4.69
2019-01-05T19:28:16.948Z,4.49
2019-01-05T19:33:38.625Z,4.42
2019-01-05T19:38:48.687Z,4.39
2019-01-05T19:43:52.828Z,4.37
2019-01-05T19:48:56.895Z,4.36
2019-01-05T19:54:01.252Z,4.38
2019-01-05T19:59:23.206Z,4.33
2019-01-05T20:04:30.353Z,4.36
2019-01-05T20:09:35.087Z,4.36
2019-01-05T20:14:39.621Z,4.30
2019-01-05T20:20:02.392Z,4.20
2019-01-05T20:25:24.832Z,4.21
2019-01-05T20:30:29.625Z,4.20
2019-01-05T20:35:34.935Z,4.14
2019-01-05T20:40:39.403Z,3.95
2019-01-05T20:45:43.795Z,3.86
2019-01-05T20:50:48.686Z,3.65
2019-01-05T20:55:53.506Z,3.51
2019-01-05T21:01:15.648Z,3.45
2019-01-05T21:06:19.846Z,3.40
2019-01-05T21:11:23.966Z,3.26
2019-01-05T21:16:29.092Z,3.22
2019-01-05T21:21:33.777Z,3.11
2019-01-05T21:26:37.862Z,2.93
2019-01-05T21:31:41.971Z,2.91
2019-01-05T21:36:46.762Z,2.68
2019-01-05T21:41:51.032Z,2.51
2019-01-05T21:46:55.238Z,2.36
2019-01-05T21:51:59.340Z,1.86
2019-01-05T21:57:03.397Z,1.73
2019-01-05T22:02:07.718Z,1.70
2019-01-05T22:07:31.164Z,1.53
2019-01-05T22:12:35.793Z,1.46
2019-01-05T22:17:58.219Z,1.40
2019-01-05T22:23:09.505Z,1.28
2019-01-05T22:28:14.562Z,1.12
2019-01-05T22:33:19.646Z,1.10
2019-01-05T22:38:24.850Z,1.23
2019-01-05T22:43:29.448Z,1.30
2019-01-05T22:48:34.346Z,1.51
2019-01-05T22:53:39.304Z,1.65
2019-01-05T22:58:44.844Z,1.68
2019-01-05T23:03:49.220Z,1.73
2019-01-05T23:08:53.527Z,1.80
2019-01-05T23:13:57.585Z,1.87
2019-01-05T23:19:01.636Z,1.94
2019-01-05T23:24:05.719Z,1.93
2019-01-05T23:29:14.824Z,1.94
2019-01-05T23:34:15.551Z,1.97
2019-01-05T23:39:19.623Z,1.96
2019-01-05T23:44:23.750Z,1.75
2019-01-05T23:49:28.087Z,1.59
2019-01-05T23:54:32.160Z,1.61
2019-01-05T23:59:36.244Z,1.50
